Time;durP1;ratioP1;P1;durP2;ratioP2;P2;SDS_P1;SDS_P2;PMS_P1;PMS_P2;Temp;Humidity;BMP_temperature;BMP_pressure;BME280_temperature;BME280_humidity;BME280_pressure;Samples;Min_cycle;Max_cycle;Signal;HPM_P1;HPM_P2
2022/06/25 00:02:04;;;;;;;1.83;0.30;;;;;;;;;;4824034;29;20566;-82
2022/06/25 00:07:17;;;;;;;3.30;0.57;;;;;;;;;;4810778;29;20063;-81
2022/06/25 00:09:45;;;;;;;1.85;0.40;;;;;;;;;;4843425;29;20411;-82
2022/06/25 00:14:59;;;;;;;2.38;0.50;;;;;;;;;;4848853;29;20088;-82
2022/06/25 00:17:27;;;;;;;2.58;0.65;;;;;;;;;;4847723;29;20042;-81
2022/06/25 00:19:55;;;;;;;0.30;0.28;;;;;;;;;;4837153;29;20053;-82
2022/06/25 00:22:22;;;;;;;2.05;0.60;;;;;;;;;;4826446;29;20060;-82
2022/06/25 00:24:50;;;;;;;1.83;0.63;;;;;;;;;;4859516;29;20033;-82
2022/06/25 00:27:17;;;;;;;1.45;0.50;;;;;;;;;;4848983;29;20076;-81
2022/06/25 00:29:45;;;;;;;4.40;0.70;;;;;;;;;;4847659;29;20045;-81
2022/06/25 00:32:12;;;;;;;3.90;0.60;;;;;;;;;;4861165;29;20526;-81
2022/06/25 00:34:42;;;;;;;1.52;0.55;;;;;;;;;;4816733;29;21214;-82
2022/06/25 00:37:10;;;;;;;3.22;0.90;;;;;;;;;;4832639;29;20057;-82
2022/06/25 00:39:38;;;;;;;1.25;0.60;;;;;;;;;;4834610;29;20573;-81
2022/06/25 00:42:10;;;;;;;1.08;0.45;;;;;;;;;;4847136;29;20113;-81
2022/06/25 00:44:37;;;;;;;;;;;;;;;;;;4833003;29;20110;-81
2022/06/25 00:47:08;;;;;;;7.05;0.70;;;;;;;;;;4828265;29;20440;-81
2022/06/25 00:49:36;;;;;;;1.63;1.08;;;;;;;;;;4852497;29;20048;-81
2022/06/25 00:52:07;;;;;;;3.50;1.10;;;;;;;;;;4831359;29;20117;-80
2022/06/25 00:54:36;;;;;;;9.80;1.30;;;;;;;;;;4845777;29;20050;-80
2022/06/25 00:57:08;;;;;;;0.60;0.60;;;;;;;;;;4835289;29;20526;-80
2022/06/25 00:59:35;;;;;;;;;;;;;;;;;;4817881;29;20069;-80
2022/06/25 01:02:03;;;;;;;1.77;0.90;;;;;;;;;;4817831;29;19927;-80
2022/06/25 01:04:30;;;;;;;3.42;1.30;;;;;;;;;;4846557;29;20053;-80
2022/06/25 01:06:58;;;;;;;2.17;1.20;;;;;;;;;;4832276;29;20053;-80
2022/06/25 01:09:25;;;;;;;26.45;1.42;;;;;;;;;;4850579;29;20132;-79
2022/06/25 01:11:53;;;;;;;7.45;0.70;;;;;;;;;;4821509;29;20061;-79
2022/06/25 01:14:21;;;;;;;5.80;1.10;;;;;;;;;;4831249;29;20057;-78
2022/06/25 01:16:48;;;;;;;2.25;1.00;;;;;;;;;;4834199;29;20589;-78
2022/06/25 01:19:16;;;;;;;4.88;1.60;;;;;;;;;;4834430;29;20951;-78
2022/06/25 01:21:44;;;;;;;4.78;1.15;;;;;;;;;;4848762;29;20552;-78
2022/06/25 01:24:12;;;;;;;2.35;0.68;;;;;;;;;;4833287;29;20439;-80
2022/06/25 01:26:40;;;;;;;1.02;0.50;;;;;;;;;;4833474;29;20080;-79
2022/06/25 01:29:09;;;;;;;3.38;0.68;;;;;;;;;;4852372;29;20155;-79
2022/06/25 01:31:37;;;;;;;1.23;0.50;;;;;;;;;;4838146;29;20076;-79
2022/06/25 01:34:10;;;;;;;10.43;0.80;;;;;;;;;;4850765;29;20042;-78
2022/06/25 01:36:37;;;;;;;5.28;0.60;;;;;;;;;;4849307;29;20053;-78
2022/06/25 01:39:05;;;;;;;6.72;0.80;;;;;;;;;;4830989;29;20122;-79
2022/06/25 01:41:32;;;;;;;3.05;0.80;;;;;;;;;;4850970;29;20522;-79
2022/06/25 01:44:00;;;;;;;4.22;0.70;;;;;;;;;;4831056;29;20080;-79
2022/06/25 01:46:28;;;;;;;0.57;0.35;;;;;;;;;;4849296;29;20488;-79
2022/06/25 01:49:03;;;;;;;1.75;0.57;;;;;;;;;;4820737;29;20506;-80
2022/06/25 01:51:30;;;;;;;0.90;0.60;;;;;;;;;;4823659;29;20041;-81
2022/06/25 01:54:01;;;;;;;2.03;0.70;;;;;;;;;;4823713;29;20053;-82
2022/06/25 01:56:28;;;;;;;0.50;0.50;;;;;;;;;;4823743;29;20060;-80
2022/06/25 01:58:56;;;;;;;0.90;0.90;;;;;;;;;;4817262;29;20067;-80
2022/06/25 02:01:24;;;;;;;2.45;2.10;;;;;;;;;;4839940;29;20058;-80
2022/06/25 02:04:01;;;;;;;1.23;0.65;;;;;;;;;;4831439;29;20052;-79
2022/06/25 02:06:29;;;;;;;0.73;0.60;;;;;;;;;;4826250;29;20042;-80
2022/06/25 02:08:59;;;;;;;0.70;0.70;;;;;;;;;;4825745;29;20047;-79
2022/06/25 02:11:27;;;;;;;1.00;0.80;;;;;;;;;;4822185;29;20053;-82
2022/06/25 02:13:55;;;;;;;1.73;1.63;;;;;;;;;;4850225;29;20042;-79
2022/06/25 02:16:22;;;;;;;1.63;1.20;;;;;;;;;;4845729;29;20105;-78
2022/06/25 02:18:50;;;;;;;1.00;0.95;;;;;;;;;;4864004;29;20049;-79
2022/06/25 02:21:19;;;;;;;0.65;0.65;;;;;;;;;;4838362;29;20123;-80
2022/06/25 02:23:50;;;;;;;3.33;0.80;;;;;;;;;;4833043;29;20102;-80
2022/06/25 02:26:17;;;;;;;2.15;1.88;;;;;;;;;;4830150;29;20050;-80
2022/06/25 02:28:45;;;;;;;0.90;0.82;;;;;;;;;;4850027;29;20080;-80
2022/06/25 02:31:12;;;;;;;1.05;0.95;;;;;;;;;;4828060;29;20534;-82
2022/06/25 02:33:40;;;;;;;0.90;0.70;;;;;;;;;;4822546;29;20042;-79
2022/06/25 02:36:08;;;;;;;1.65;0.70;;;;;;;;;;4834514;29;20049;-80
2022/06/25 02:38:35;;;;;;;1.00;0.82;;;;;;;;;;4817205;29;20057;-79
2022/06/25 02:41:03;;;;;;;1.13;0.90;;;;;;;;;;4815556;29;20144;-79
2022/06/25 02:43:35;;;;;;;;;;;;;;;;;;4826480;29;20053;-80
2022/06/25 02:46:12;;;;;;;1.02;1.02;;;;;;;;;;4848112;29;19988;-80
2022/06/25 02:48:40;;;;;;;1.17;1.05;;;;;;;;;;4847178;29;20422;-80
2022/06/25 02:51:08;;;;;;;0.82;0.82;;;;;;;;;;4802097;29;20505;-80
2022/06/25 02:53:36;;;;;;;1.00;0.85;;;;;;;;;;4829712;29;20434;-80
2022/06/25 02:58:54;;;;;;;1.90;1.23;;;;;;;;;;4841061;29;20066;-80
2022/06/25 03:01:28;;;;;;;1.00;1.00;;;;;;;;;;4815378;29;20046;-80
2022/06/25 03:03:56;;;;;;;2.47;1.20;;;;;;;;;;4832875;29;20518;-80
2022/06/25 03:06:24;;;;;;;1.15;1.05;;;;;;;;;;4848687;29;20141;-78
2022/06/25 03:08:53;;;;;;;0.93;0.93;;;;;;;;;;4806052;29;20114;-80
2022/06/25 03:11:22;;;;;;;1.48;1.20;;;;;;;;;;4824212;29;20069;-80
2022/06/25 03:13:50;;;;;;;1.58;1.38;;;;;;;;;;4841604;29;20046;-80
2022/06/25 03:16:18;;;;;;;1.73;1.63;;;;;;;;;;4828312;29;20186;-80
2022/06/25 03:18:49;;;;;;;1.60;1.48;;;;;;;;;;4825517;29;20057;-80
2022/06/25 03:21:16;;;;;;;1.40;1.30;;;;;;;;;;4825520;29;20061;-80
2022/06/25 03:23:46;;;;;;;2.05;1.60;;;;;;;;;;4829212;29;20053;-80
2022/06/25 03:26:15;;;;;;;2.88;2.00;;;;;;;;;;4821837;29;20135;-80
2022/06/25 03:28:42;;;;;;;1.48;1.40;;;;;;;;;;4841362;29;20045;-80
2022/06/25 03:31:10;;;;;;;4.78;1.35;;;;;;;;;;4837394;29;20350;-80
2022/06/25 03:33:38;;;;;;;3.78;1.70;;;;;;;;;;4814974;29;20057;-80
2022/06/25 03:36:10;;;;;;;2.90;1.50;;;;;;;;;;4831343;29;20065;-80
2022/06/25 03:38:43;;;;;;;4.43;1.88;;;;;;;;;;4798914;29;20054;-79
2022/06/25 03:41:46;;;;;;;1.50;1.40;;;;;;;;;;4826175;29;20410;-79
2022/06/25 03:44:25;;;;;;;1.77;1.55;;;;;;;;;;4838263;29;20042;-81
2022/06/25 03:47:02;;;;;;;1.80;1.70;;;;;;;;;;4840486;29;20109;-80
2022/06/25 03:49:32;;;;;;;3.50;1.30;;;;;;;;;;4836004;29;20075;-79
2022/06/25 03:52:01;;;;;;;0.75;0.75;;;;;;;;;;4840719;29;20041;-80
2022/06/25 03:54:29;;;;;;;1.48;1.30;;;;;;;;;;4845146;29;20060;-80
2022/06/25 03:56:56;;;;;;;1.30;1.20;;;;;;;;;;4833281;29;20045;-80
2022/06/25 03:59:33;;;;;;;1.10;1.10;;;;;;;;;;4798655;29;20046;-80
2022/06/25 04:02:11;;;;;;;1.40;1.30;;;;;;;;;;4797294;29;20133;-80
2022/06/25 04:04:59;;;;;;;0.80;0.80;;;;;;;;;;4823913;29;20566;-79
2022/06/25 04:07:27;;;;;;;1.77;0.80;;;;;;;;;;4816900;29;20482;-80
2022/06/25 04:09:54;;;;;;;1.80;1.60;;;;;;;;;;4818576;29;20044;-80
2022/06/25 04:12:22;;;;;;;3.03;1.33;;;;;;;;;;4821029;29;20211;-80
2022/06/25 04:14:51;;;;;;;0.95;0.95;;;;;;;;;;4831870;29;20068;-80
2022/06/25 04:17:19;;;;;;;0.95;0.95;;;;;;;;;;4838073;29;20049;-80
2022/06/25 04:19:47;;;;;;;1.20;0.80;;;;;;;;;;4832771;29;20042;-80
2022/06/25 04:22:17;;;;;;;1.00;1.00;;;;;;;;;;4836293;29;20116;-80
2022/06/25 04:24:46;;;;;;;1.63;1.15;;;;;;;;;;4833107;29;20050;-81
2022/06/25 04:29:03;;;;;;;1.17;1.10;;;;;;;;;;4814063;29;22003;-80
2022/06/25 04:30:01;;;;;;;3.63;1.35;;;;;;;;;;4822570;29;20487;-79
2022/06/25 04:32:30;;;;;;;1.90;1.48;;;;;;;;;;4813646;29;20046;-80
2022/06/25 04:35:16;;;;;;;3.53;1.15;;;;;;;;;;4835191;29;20053;-80
2022/06/25 04:37:45;;;;;;;1.60;1.48;;;;;;;;;;4835804;29;20042;-80
2022/06/25 04:40:15;;;;;;;2.58;1.90;;;;;;;;;;4802384;29;20071;-80
2022/06/25 04:42:46;;;;;;;2.90;1.50;;;;;;;;;;4825265;29;20075;-79
2022/06/25 04:45:14;;;;;;;2.35;1.48;;;;;;;;;;4818072;29;20053;-79
2022/06/25 04:48:01;;;;;;;1.40;1.30;;;;;;;;;;4826560;29;20042;-79
2022/06/25 04:50:47;;;;;;;5.22;1.70;;;;;;;;;;4843731;29;20551;-79
2022/06/25 04:53:14;;;;;;;4.10;1.45;;;;;;;;;;4844881;29;20037;-79
2022/06/25 04:55:42;;;;;;;4.00;2.00;;;;;;;;;;4851152;29;20037;-79
2022/06/25 04:58:10;;;;;;;1.35;1.30;;;;;;;;;;4823599;29;20050;-78
2022/06/25 05:00:59;;;;;;;1.30;1.20;;;;;;;;;;4844111;29;20090;-78
2022/06/25 05:03:27;;;;;;;4.15;1.60;;;;;;;;;;4840942;29;20045;-78
2022/06/25 05:06:11;;;;;;;5.35;1.65;;;;;;;;;;4831631;29;20053;-78
2022/06/25 05:08:39;;;;;;;3.83;1.52;;;;;;;;;;4838375;29;20045;-78
2022/06/25 05:11:06;;;;;;;1.70;1.60;;;;;;;;;;4827152;29;20076;-79
2022/06/25 05:13:34;;;;;;;1.77;1.30;;;;;;;;;;4821855;29;20042;-78
2022/06/25 05:16:02;;;;;;;2.58;1.60;;;;;;;;;;4829479;29;20201;-78
2022/06/25 05:18:29;;;;;;;2.05;1.10;;;;;;;;;;4846906;29;20384;-78
2022/06/25 05:20:57;;;;;;;2.80;1.27;;;;;;;;;;4851935;29;20069;-79
2022/06/25 05:23:24;;;;;;;1.60;1.35;;;;;;;;;;4832726;29;20033;-80
2022/06/25 05:25:52;;;;;;;1.30;1.17;;;;;;;;;;4805592;29;20474;-79
2022/06/25 05:28:19;;;;;;;2.28;1.02;;;;;;;;;;4819743;29;20051;-79
2022/06/25 05:30:47;;;;;;;3.30;1.40;;;;;;;;;;4825567;29;20056;-79
2022/06/25 05:33:14;;;;;;;2.42;1.40;;;;;;;;;;4849849;29;20484;-78
2022/06/25 05:35:42;;;;;;;2.55;1.33;;;;;;;;;;4841221;29;20041;-79
2022/06/25 05:38:10;;;;;;;2.42;2.20;;;;;;;;;;4868481;29;20054;-79
2022/06/25 05:40:38;;;;;;;1.92;1.10;;;;;;;;;;4835077;29;20543;-79
2022/06/25 05:43:06;;;;;;;1.48;1.20;;;;;;;;;;4844077;24;20028;-77
2022/06/25 05:45:33;;;;;;;1.98;0.98;;;;;;;;;;4861254;29;20134;-76
2022/06/25 05:48:01;;;;;;;2.35;1.25;;;;;;;;;;4839889;29;20150;-76
2022/06/25 05:50:28;;;;;;;2.72;1.00;;;;;;;;;;4845647;29;20088;-75
2022/06/25 05:52:56;;;;;;;0.95;0.95;;;;;;;;;;4845984;29;20060;-75
2022/06/25 05:55:24;;;;;;;2.35;0.63;;;;;;;;;;4834402;29;20042;-75
2022/06/25 05:57:52;;;;;;;2.05;0.90;;;;;;;;;;4838965;29;20046;-75
2022/06/25 06:00:19;;;;;;;0.80;0.80;;;;;;;;;;4833650;29;20042;-75
2022/06/25 06:02:46;;;;;;;4.57;1.20;;;;;;;;;;4835440;29;20137;-76
2022/06/25 06:05:14;;;;;;;0.85;0.80;;;;;;;;;;4843379;29;20057;-77
2022/06/25 06:07:41;;;;;;;1.20;0.80;;;;;;;;;;4836264;29;20134;-75
2022/06/25 06:10:09;;;;;;;0.60;0.60;;;;;;;;;;4836994;29;20377;-75
2022/06/25 06:12:36;;;;;;;1.30;0.70;;;;;;;;;;4835269;29;20121;-77
2022/06/25 06:15:04;;;;;;;2.47;0.70;;;;;;;;;;4835707;29;20479;-77
2022/06/25 06:17:32;;;;;;;0.70;0.70;;;;;;;;;;4841455;29;20114;-76
2022/06/25 06:20:00;;;;;;;1.42;0.68;;;;;;;;;;4825779;29;20069;-76
2022/06/25 06:22:28;;;;;;;0.50;0.50;;;;;;;;;;4825297;29;20065;-76
2022/06/25 06:24:55;;;;;;;1.00;0.90;;;;;;;;;;4831339;29;20056;-75
2022/06/25 06:27:23;;;;;;;1.98;0.80;;;;;;;;;;4835333;29;20057;-75
2022/06/25 06:29:52;;;;;;;2.65;1.00;;;;;;;;;;4838257;29;20142;-77
2022/06/25 06:32:19;;;;;;;1.45;0.90;;;;;;;;;;4838263;29;20133;-76
2022/06/25 06:34:47;;;;;;;2.40;1.20;;;;;;;;;;4839541;29;20566;-77
2022/06/25 06:37:14;;;;;;;4.95;1.50;;;;;;;;;;4838893;29;20145;-77
2022/06/25 06:39:46;;;;;;;1.17;0.73;;;;;;;;;;4824072;29;20046;-76
2022/06/25 06:42:13;;;;;;;2.13;1.20;;;;;;;;;;4837569;29;20088;-76
2022/06/25 06:44:41;;;;;;;2.15;0.90;;;;;;;;;;4820731;29;20054;-76
2022/06/25 06:47:08;;;;;;;1.48;1.00;;;;;;;;;;4835716;29;20065;-76
2022/06/25 06:49:38;;;;;;;3.53;1.08;;;;;;;;;;4822079;29;20133;-76
2022/06/25 06:52:05;;;;;;;0.63;0.63;;;;;;;;;;4832891;29;20045;-77
2022/06/25 06:54:33;;;;;;;0.60;0.57;;;;;;;;;;4836381;29;20046;-76
2022/06/25 06:57:00;;;;;;;0.60;0.60;;;;;;;;;;4839090;29;20146;-77
2022/06/25 06:59:28;;;;;;;2.58;0.80;;;;;;;;;;4837851;29;20145;-76
2022/06/25 07:01:55;;;;;;;0.82;0.63;;;;;;;;;;4837583;29;20050;-76
2022/06/25 07:04:23;;;;;;;3.03;0.90;;;;;;;;;;4839138;29;20053;-75
2022/06/25 07:06:50;;;;;;;4.03;1.02;;;;;;;;;;4832220;29;20045;-76
2022/06/25 07:09:18;;;;;;;1.38;0.80;;;;;;;;;;4833885;29;20038;-76
2022/06/25 07:11:46;;;;;;;3.65;3.35;;;;;;;;;;4816974;29;20042;-75
2022/06/25 07:14:13;;;;;;;1.50;1.20;;;;;;;;;;4828550;29;20049;-77
2022/06/25 07:16:41;;;;;;;4.80;1.20;;;;;;;;;;4829668;29;20046;-77
2022/06/25 07:19:10;;;;;;;2.67;0.90;;;;;;;;;;4823093;29;20314;-76
2022/06/25 07:21:38;;;;;;;2.03;0.70;;;;;;;;;;4832842;29;20049;-76
2022/06/25 07:24:05;;;;;;;0.80;0.80;;;;;;;;;;4834227;29;20053;-75
2022/06/25 07:26:33;;;;;;;1.05;0.80;;;;;;;;;;4821644;29;20098;-76
2022/06/25 07:29:01;;;;;;;1.35;1.08;;;;;;;;;;4829082;29;20047;-77
2022/06/25 07:31:28;;;;;;;1.17;0.80;;;;;;;;;;4841318;29;20438;-76
2022/06/25 07:33:56;;;;;;;3.03;1.13;;;;;;;;;;4839743;29;20073;-77
2022/06/25 07:36:23;;;;;;;1.42;0.77;;;;;;;;;;4833899;29;20136;-75
2022/06/25 07:38:52;;;;;;;0.93;0.80;;;;;;;;;;4819467;29;20343;-77
2022/06/25 07:41:19;;;;;;;2.85;0.93;;;;;;;;;;4820875;29;20065;-75
2022/06/25 07:43:47;;;;;;;3.47;1.50;;;;;;;;;;4843126;29;20088;-75
2022/06/25 07:46:14;;;;;;;2.75;0.90;;;;;;;;;;4835465;29;20049;-76
2022/06/25 07:48:42;;;;;;;3.72;1.00;;;;;;;;;;4834960;29;20133;-76
2022/06/25 07:53:55;;;;;;;1.33;1.10;;;;;;;;;;4843040;29;20045;-77
2022/06/25 07:56:26;;;;;;;0.85;0.70;;;;;;;;;;4846967;29;20060;-77
2022/06/25 07:58:53;;;;;;;2.67;0.90;;;;;;;;;;4835397;29;20092;-78
2022/06/25 08:01:21;;;;;;;1.02;1.02;;;;;;;;;;4842573;29;20146;-77
2022/06/25 08:03:49;;;;;;;4.30;1.00;;;;;;;;;;4820282;29;20064;-76
2022/06/25 08:06:16;;;;;;;1.17;1.00;;;;;;;;;;4838169;29;20121;-77
2022/06/25 08:08:44;;;;;;;1.92;0.90;;;;;;;;;;4829816;29;20128;-77
2022/06/25 08:11:11;;;;;;;1.58;0.90;;;;;;;;;;4831516;29;20115;-77
2022/06/25 08:13:39;;;;;;;1.65;0.80;;;;;;;;;;4826717;29;20221;-77
2022/06/25 08:16:09;;;;;;;1.00;1.00;;;;;;;;;;4833729;29;20081;-77
2022/06/25 08:18:38;;;;;;;2.85;0.93;;;;;;;;;;4833323;29;20060;-76
2022/06/25 08:21:06;;;;;;;4.30;1.00;;;;;;;;;;4841474;29;20054;-76
2022/06/25 08:23:33;;;;;;;3.30;1.27;;;;;;;;;;4830808;29;20409;-76
2022/06/25 08:26:01;;;;;;;1.30;1.23;;;;;;;;;;4835032;29;20117;-76
2022/06/25 08:28:28;;;;;;;1.42;1.20;;;;;;;;;;4834566;29;20050;-76
2022/06/25 08:30:56;;;;;;;4.22;1.20;;;;;;;;;;4837107;29;20280;-76
2022/06/25 08:33:23;;;;;;;5.82;1.50;;;;;;;;;;4835479;29;20126;-77
2022/06/25 08:35:50;;;;;;;2.40;1.23;;;;;;;;;;4831422;29;20130;-77
2022/06/25 08:38:18;;;;;;;1.58;1.33;;;;;;;;;;4823941;29;20084;-76
2022/06/25 08:40:45;;;;;;;1.13;1.13;;;;;;;;;;4833294;29;20054;-77
2022/06/25 08:43:13;;;;;;;1.42;1.00;;;;;;;;;;4814724;29;20058;-76
2022/06/25 08:45:41;;;;;;;2.13;1.10;;;;;;;;;;4832352;29;20065;-77
2022/06/25 08:48:16;;;;;;;1.90;1.20;;;;;;;;;;4835470;29;20041;-77
2022/06/25 08:50:44;;;;;;;1.52;1.20;;;;;;;;;;4830127;29;20038;-76
2022/06/25 08:53:13;;;;;;;1.70;1.20;;;;;;;;;;4826294;29;20106;-77
2022/06/25 08:55:40;;;;;;;2.17;2.00;;;;;;;;;;4826741;29;20255;-77
2022/06/25 08:58:12;;;;;;;2.30;1.38;;;;;;;;;;4834262;29;20056;-76
2022/06/25 09:00:41;;;;;;;1.63;1.25;;;;;;;;;;4835719;29;20051;-77
2022/06/25 09:03:09;;;;;;;3.15;1.50;;;;;;;;;;4824471;29;20102;-76
2022/06/25 09:05:39;;;;;;;2.75;1.13;;;;;;;;;;4832548;29;20080;-77
2022/06/25 09:08:08;;;;;;;1.17;1.17;;;;;;;;;;4821470;29;20075;-77
2022/06/25 09:10:36;;;;;;;1.30;1.20;;;;;;;;;;4842784;29;20411;-77
2022/06/25 09:13:05;;;;;;;3.15;1.10;;;;;;;;;;4848000;29;20100;-77
2022/06/25 09:15:40;;;;;;;1.25;1.15;;;;;;;;;;4824892;29;20137;-77
2022/06/25 09:18:12;;;;;;;4.20;1.33;;;;;;;;;;4836495;29;20160;-77
2022/06/25 09:20:55;;;;;;;2.65;1.00;;;;;;;;;;4843323;29;20514;-76
2022/06/25 09:23:22;;;;;;;1.70;1.02;;;;;;;;;;4834810;29;20045;-77
2022/06/25 09:26:00;;;;;;;3.80;1.20;;;;;;;;;;4832853;29;20381;-75
2022/06/25 09:28:36;;;;;;;1.10;1.10;;;;;;;;;;4827103;29;20125;-76
2022/06/25 09:31:04;;;;;;;3.25;1.42;;;;;;;;;;4834363;29;20157;-76
2022/06/25 09:33:32;;;;;;;1.02;0.95;;;;;;;;;;4834812;29;20046;-77
2022/06/25 09:36:00;;;;;;;1.27;1.17;;;;;;;;;;4834903;29;20110;-77
2022/06/25 09:38:27;;;;;;;2.72;1.20;;;;;;;;;;4836316;29;20422;-77
2022/06/25 09:40:56;;;;;;;0.90;0.90;;;;;;;;;;4839827;29;20107;-76
2022/06/25 09:43:25;;;;;;;1.30;1.20;;;;;;;;;;4818935;29;20086;-77
2022/06/25 09:45:55;;;;;;;1.70;1.13;;;;;;;;;;4848720;29;20054;-77
2022/06/25 09:48:31;;;;;;;1.83;0.95;;;;;;;;;;4833132;29;20046;-77
2022/06/25 09:51:07;;;;;;;2.97;1.38;;;;;;;;;;4835089;29;20541;-77
2022/06/25 09:53:35;;;;;;;1.33;0.90;;;;;;;;;;4834720;29;20042;-77
2022/06/25 09:56:03;;;;;;;2.42;1.10;;;;;;;;;;4831927;29;20073;-77
2022/06/25 09:58:32;;;;;;;1.02;1.00;;;;;;;;;;4818737;29;20064;-76
2022/06/25 10:00:59;;;;;;;1.20;1.05;;;;;;;;;;4847274;29;20077;-77
2022/06/25 10:03:27;;;;;;;0.80;0.80;;;;;;;;;;4837947;29;20080;-77
2022/06/25 10:05:55;;;;;;;3.15;0.90;;;;;;;;;;4842169;29;20093;-77
2022/06/25 10:08:22;;;;;;;1.65;1.00;;;;;;;;;;4821163;29;20046;-77
2022/06/25 10:10:51;;;;;;;1.30;1.00;;;;;;;;;;4837483;29;20081;-76
2022/06/25 10:13:18;;;;;;;0.88;0.77;;;;;;;;;;4834870;29;20123;-77
2022/06/25 10:15:46;;;;;;;0.90;0.90;;;;;;;;;;4835233;29;20141;-78
2022/06/25 10:18:14;;;;;;;0.70;0.70;;;;;;;;;;4841750;29;20599;-76
2022/06/25 10:20:42;;;;;;;0.80;0.80;;;;;;;;;;4844372;29;20064;-77
2022/06/25 10:23:11;;;;;;;2.53;0.90;;;;;;;;;;4823995;29;20092;-77
2022/06/25 10:25:39;;;;;;;0.80;0.80;;;;;;;;;;4835745;29;20585;-77
2022/06/25 10:28:09;;;;;;;2.67;1.00;;;;;;;;;;4827477;29;20671;-76
2022/06/25 10:30:49;;;;;;;1.40;1.30;;;;;;;;;;4834198;29;20140;-77
2022/06/25 10:33:21;;;;;;;1.17;1.00;;;;;;;;;;4841197;29;20045;-77
2022/06/25 10:35:49;;;;;;;0.88;0.80;;;;;;;;;;4846638;29;20054;-77
2022/06/25 10:38:18;;;;;;;1.25;1.13;;;;;;;;;;4836336;29;20045;-77
2022/06/25 10:40:51;;;;;;;3.42;0.90;;;;;;;;;;4825642;29;20173;-77
2022/06/25 10:43:37;;;;;;;0.80;0.80;;;;;;;;;;4835328;29;20054;-77
2022/06/25 10:46:21;;;;;;;1.10;1.00;;;;;;;;;;4834528;29;20085;-77
2022/06/25 10:48:50;;;;;;;0.90;0.90;;;;;;;;;;4833360;29;20069;-76
2022/06/25 10:51:31;;;;;;;3.60;0.90;;;;;;;;;;4837824;29;20046;-77
2022/06/25 10:53:59;;;;;;;2.95;1.02;;;;;;;;;;4841727;29;20076;-77
2022/06/25 10:56:31;;;;;;;0.90;0.90;;;;;;;;;;4840965;29;20137;-76
2022/06/25 10:58:58;;;;;;;0.98;0.98;;;;;;;;;;4839823;29;20061;-77
2022/06/25 11:01:28;;;;;;;1.73;0.90;;;;;;;;;;4815175;29;20106;-76
2022/06/25 11:03:57;;;;;;;1.42;0.95;;;;;;;;;;4831915;29;20250;-77
2022/06/25 11:06:28;;;;;;;3.10;1.10;;;;;;;;;;4832931;29;20046;-77
2022/06/25 11:09:09;;;;;;;1.85;0.90;;;;;;;;;;4833200;29;20050;-77
2022/06/25 11:11:38;;;;;;;1.15;1.00;;;;;;;;;;4847862;29;20060;-77
2022/06/25 11:14:12;;;;;;;0.88;0.88;;;;;;;;;;4833906;29;20042;-76
2022/06/25 11:16:40;;;;;;;1.98;0.90;;;;;;;;;;4841595;29;20501;-77
2022/06/25 11:19:08;;;;;;;1.02;0.77;;;;;;;;;;4833719;29;20057;-77
2022/06/25 11:21:39;;;;;;;1.52;0.88;;;;;;;;;;4824941;29;20135;-77
2022/06/25 11:24:06;;;;;;;;;;;;;;;;;;4837925;29;20050;-76
2022/06/25 11:29:24;;;;;;;0.80;0.80;;;;;;;;;;4843051;29;20057;-77
2022/06/25 11:31:53;;;;;;;0.77;0.77;;;;;;;;;;4817668;29;20467;-77
2022/06/25 11:34:22;;;;;;;2.40;0.90;;;;;;;;;;4834080;29;20511;-77
2022/06/25 11:37:01;;;;;;;1.52;0.80;;;;;;;;;;4847842;29;20070;-76
2022/06/25 11:39:29;;;;;;;2.55;0.77;;;;;;;;;;4840301;29;20129;-77
2022/06/25 11:41:57;;;;;;;1.65;0.77;;;;;;;;;;4841444;29;20073;-77
2022/06/25 11:44:25;;;;;;;2.15;0.80;;;;;;;;;;4848432;24;20077;-79
2022/06/25 11:46:53;;;;;;;0.60;0.60;;;;;;;;;;4854442;29;20705;-78
2022/06/25 11:49:22;;;;;;;0.50;0.50;;;;;;;;;;4829840;29;20068;-78
2022/06/25 11:51:51;;;;;;;0.50;0.50;;;;;;;;;;4834212;29;20144;-77
2022/06/25 11:54:23;;;;;;;0.60;0.60;;;;;;;;;;4835196;29;20052;-77
2022/06/25 11:56:52;;;;;;;4.63;0.90;;;;;;;;;;4829822;29;20056;-79
2022/06/25 11:59:38;;;;;;;1.17;1.10;;;;;;;;;;4852721;29;20063;-78
2022/06/25 12:02:07;;;;;;;1.13;0.80;;;;;;;;;;4832115;29;20045;-78
2022/06/25 12:04:54;;;;;;;0.60;0.60;;;;;;;;;;4844476;29;20105;-79
2022/06/25 12:07:27;;;;;;;0.50;0.50;;;;;;;;;;4846263;29;20128;-79
2022/06/25 12:09:59;;;;;;;1.10;0.73;;;;;;;;;;4830996;29;20049;-78
2022/06/25 12:12:28;;;;;;;0.60;0.60;;;;;;;;;;4859033;29;20153;-78
2022/06/25 12:14:59;;;;;;;3.05;0.75;;;;;;;;;;4834078;29;20392;-78
2022/06/25 12:17:34;;;;;;;1.58;0.70;;;;;;;;;;4840344;29;20050;-79
2022/06/25 12:20:08;;;;;;;0.63;0.63;;;;;;;;;;4853338;29;20057;-80
2022/06/25 12:22:37;;;;;;;0.80;0.73;;;;;;;;;;4868019;29;20080;-79
2022/06/25 12:25:05;;;;;;;0.70;0.70;;;;;;;;;;4842494;29;20065;-79
2022/06/25 12:27:44;;;;;;;1.58;0.80;;;;;;;;;;4851630;29;20055;-79
2022/06/25 12:30:12;;;;;;;0.73;0.52;;;;;;;;;;4834437;29;20052;-79
2022/06/25 12:32:40;;;;;;;1.17;0.75;;;;;;;;;;4842946;29;20085;-79
2022/06/25 12:35:17;;;;;;;0.60;0.60;;;;;;;;;;4864257;29;20042;-80
2022/06/25 12:38:01;;;;;;;0.60;0.60;;;;;;;;;;4842657;29;20441;-79
2022/06/25 12:40:29;;;;;;;0.88;0.75;;;;;;;;;;4849343;29;20056;-80
2022/06/25 12:42:57;;;;;;;1.65;0.77;;;;;;;;;;4833832;29;20061;-80
2022/06/25 12:45:25;;;;;;;1.85;0.68;;;;;;;;;;4859944;29;20502;-79
2022/06/25 12:47:52;;;;;;;1.65;0.70;;;;;;;;;;4864124;29;20554;-79
2022/06/25 12:50:23;;;;;;;2.45;0.90;;;;;;;;;;4880114;29;20490;-80
2022/06/25 12:52:51;;;;;;;1.05;0.60;;;;;;;;;;4843848;29;20136;-80
2022/06/25 12:55:23;;;;;;;0.80;0.60;;;;;;;;;;4857387;29;20076;-79
2022/06/25 12:57:54;;;;;;;2.80;0.77;;;;;;;;;;4829676;29;20041;-80
2022/06/25 13:00:23;;;;;;;0.63;0.63;;;;;;;;;;4849477;29;20049;-80
2022/06/25 13:02:51;;;;;;;0.93;0.70;;;;;;;;;;4880218;29;20049;-80
2022/06/25 13:05:19;;;;;;;0.93;0.60;;;;;;;;;;4861811;29;20454;-80
2022/06/25 13:07:47;;;;;;;0.80;0.50;;;;;;;;;;4810414;29;20046;-80
2022/06/25 13:10:15;;;;;;;1.02;0.68;;;;;;;;;;4822559;29;20333;-80
2022/06/25 13:12:43;;;;;;;1.75;0.82;;;;;;;;;;4852721;29;20334;-80
2022/06/25 13:15:12;;;;;;;1.67;0.75;;;;;;;;;;4830840;29;20054;-80
2022/06/25 13:17:40;;;;;;;0.70;0.60;;;;;;;;;;4850462;29;20098;-79
2022/06/25 13:20:08;;;;;;;2.17;0.50;;;;;;;;;;4870817;29;20050;-79
2022/06/25 13:22:38;;;;;;;0.50;0.50;;;;;;;;;;4859105;29;20085;-80
2022/06/25 13:25:09;;;;;;;1.63;0.68;;;;;;;;;;4840067;29;20148;-80
2022/06/25 13:27:37;;;;;;;0.85;0.85;;;;;;;;;;4827874;29;20200;-79
2022/06/25 13:30:05;;;;;;;2.70;0.80;;;;;;;;;;4842669;29;20503;-80
2022/06/25 13:32:33;;;;;;;0.77;0.77;;;;;;;;;;4841359;29;20054;-79
2022/06/25 13:35:03;;;;;;;1.75;0.88;;;;;;;;;;4860003;29;20054;-80
2022/06/25 13:37:31;;;;;;;1.20;0.60;;;;;;;;;;4852076;29;20075;-79
2022/06/25 13:39:59;;;;;;;0.70;0.70;;;;;;;;;;4863966;29;20053;-80
2022/06/25 13:42:27;;;;;;;0.40;0.40;;;;;;;;;;4842839;29;20056;-81
2022/06/25 13:44:55;;;;;;;0.40;0.40;;;;;;;;;;4862217;29;20167;-80
2022/06/25 13:47:23;;;;;;;1.95;0.60;;;;;;;;;;4835242;29;20079;-80
2022/06/25 13:49:51;;;;;;;0.60;0.40;;;;;;;;;;4880925;29;20056;-80
2022/06/25 13:52:19;;;;;;;2.63;0.60;;;;;;;;;;4859884;29;20109;-79
2022/06/25 13:54:47;;;;;;;1.23;0.65;;;;;;;;;;4849164;29;20042;-80
2022/06/25 13:57:14;;;;;;;1.48;0.50;;;;;;;;;;4874808;29;20050;-79
2022/06/25 13:59:42;;;;;;;0.60;0.50;;;;;;;;;;4848880;29;20050;-80
2022/06/25 14:02:09;;;;;;;1.13;0.45;;;;;;;;;;4878488;29;20109;-80
2022/06/25 14:04:36;;;;;;;0.40;0.40;;;;;;;;;;4866976;29;20112;-79
2022/06/25 14:07:04;;;;;;;1.95;0.90;;;;;;;;;;4856386;29;20078;-80
2022/06/25 14:09:32;;;;;;;1.17;0.55;;;;;;;;;;4863668;29;20073;-80
2022/06/25 14:12:02;;;;;;;;;;;;;;;;;;4855224;29;20050;-81
2022/06/25 14:14:32;;;;;;;2.45;0.50;;;;;;;;;;4864429;29;19940;-80
2022/06/25 14:17:00;;;;;;;;;;;;;;;;;;4848881;29;20059;-80
2022/06/25 14:19:27;;;;;;;3.58;0.60;;;;;;;;;;4855640;29;19924;-79
2022/06/25 14:21:55;;;;;;;0.80;0.70;;;;;;;;;;4838907;29;20065;-79
2022/06/25 14:27:08;;;;;;;0.77;0.40;;;;;;;;;;4846070;29;20057;-79
2022/06/25 14:29:36;;;;;;;0.45;0.45;;;;;;;;;;4828984;29;20042;-79
2022/06/25 14:32:03;;;;;;;1.75;0.50;;;;;;;;;;4872492;29;20128;-80
2022/06/25 14:34:31;;;;;;;2.60;0.50;;;;;;;;;;4871483;29;20076;-80
2022/06/25 14:42:31;;;;;;;8.40;7.53;;;;;;;;;;4862097;29;20071;-80
2022/06/25 14:44:58;;;;;;;0.73;0.73;;;;;;;;;;4848316;29;20067;-80
2022/06/25 14:47:26;;;;;;;0.85;0.60;;;;;;;;;;4861719;29;20498;-80
2022/06/25 14:49:54;;;;;;;0.30;0.30;;;;;;;;;;4839787;29;20045;-80
2022/06/25 14:52:21;;;;;;;0.55;0.50;;;;;;;;;;4855586;29;20041;-79
2022/06/25 14:54:48;;;;;;;2.60;0.70;;;;;;;;;;4843366;29;20163;-79
2022/06/25 14:57:16;;;;;;;0.57;0.50;;;;;;;;;;4846135;29;20049;-80
2022/06/25 14:59:43;;;;;;;0.63;0.47;;;;;;;;;;4847354;29;20133;-79
2022/06/25 15:02:11;;;;;;;1.52;0.50;;;;;;;;;;4848642;29;20566;-79
2022/06/25 15:04:38;;;;;;;0.50;0.50;;;;;;;;;;4841044;29;20053;-79
2022/06/25 15:07:06;;;;;;;0.63;0.40;;;;;;;;;;4847211;29;20072;-79
2022/06/25 15:09:33;;;;;;;0.50;0.50;;;;;;;;;;4850471;29;20505;-79
2022/06/25 15:12:01;;;;;;;0.50;0.43;;;;;;;;;;4847242;29;20116;-79
2022/06/25 15:14:28;;;;;;;1.95;0.55;;;;;;;;;;4860761;29;20045;-79
2022/06/25 15:16:56;;;;;;;1.95;0.60;;;;;;;;;;4853281;29;20060;-80
2022/06/25 15:19:24;;;;;;;0.98;0.50;;;;;;;;;;4849351;29;20102;-80
2022/06/25 15:21:52;;;;;;;0.52;0.50;;;;;;;;;;4858925;29;20069;-79